sensor_id;sensor_type;location;lat;lon;timestamp;pressure;altitude;pressure_sealevel;temperature;humidity
38054;BME280;23859;50.672;7.164;2023-01-15T00:01:23;99232.66;;;9.34;100.00
38054;BME280;23859;50.672;7.164;2023-01-15T00:03:51;99226.03;;;9.30;100.00
38054;BME280;23859;50.672;7.164;2023-01-15T00:06:18;99232.59;;;9.19;100.00
38054;BME280;23859;50.672;7.164;2023-01-15T00:08:45;99238.56;;;9.13;100.00
38054;BME280;23859;50.672;7.164;2023-01-15T00:11:12;99239.84;;;9.01;100.00
38054;BME280;23859;50.672;7.164;2023-01-15T00:13:38;99237.22;;;9.01;100.00
38054;BME280;23859;50.672;7.164;2023-01-15T00:16:14;99244.13;;;9.02;100.00
38054;BME280;23859;50.672;7.164;2023-01-15T00:18:40;99252.75;;;8.96;100.00
38054;BME280;23859;50.672;7.164;2023-01-15T00:21:10;99251.84;;;8.79;100.00
38054;BME280;23859;50.672;7.164;2023-01-15T00:23:36;99270.53;;;8.78;100.00
38054;BME280;23859;50.672;7.164;2023-01-15T00:26:22;99263.81;;;8.58;100.00
38054;BME280;23859;50.672;7.164;2023-01-15T00:29:10;99266.47;;;8.58;100.00
38054;BME280;23859;50.672;7.164;2023-01-15T00:31:36;99266.91;;;8.79;100.00
38054;BME280;23859;50.672;7.164;2023-01-15T00:34:02;99274.81;;;8.71;100.00
38054;BME280;23859;50.672;7.164;2023-01-15T00:36:28;99275.75;;;8.62;100.00
38054;BME280;23859;50.672;7.164;2023-01-15T00:38:55;99276.75;;;8.61;100.00
38054;BME280;23859;50.672;7.164;2023-01-15T00:41:21;99284.56;;;8.70;100.00
38054;BME280;23859;50.672;7.164;2023-01-15T00:43:47;99283.38;;;8.65;100.00
38054;BME280;23859;50.672;7.164;2023-01-15T00:46:13;99285.81;;;8.59;100.00
38054;BME280;23859;50.672;7.164;2023-01-15T00:48:39;99282.00;;;8.53;100.00
38054;BME280;23859;50.672;7.164;2023-01-15T00:51:06;99292.59;;;8.53;100.00
38054;BME280;23859;50.672;7.164;2023-01-15T00:53:32;99289.50;;;8.40;100.00
38054;BME280;23859;50.672;7.164;2023-01-15T00:55:58;99290.28;;;8.33;100.00
38054;BME280;23859;50.672;7.164;2023-01-15T00:58:24;99290.44;;;8.31;100.00
38054;BME280;23859;50.672;7.164;2023-01-15T01:00:57;99291.97;;;8.34;100.00
38054;BME280;23859;50.672;7.164;2023-01-15T01:03:24;99281.69;;;8.13;100.00
38054;BME280;23859;50.672;7.164;2023-01-15T01:05:50;99292.72;;;8.26;100.00
38054;BME280;23859;50.672;7.164;2023-01-15T01:08:16;99300.50;;;8.10;100.00
38054;BME280;23859;50.672;7.164;2023-01-15T01:10:43;99304.66;;;8.13;100.00
38054;BME280;23859;50.672;7.164;2023-01-15T01:13:10;99302.25;;;8.02;100.00
38054;BME280;23859;50.672;7.164;2023-01-15T01:15:37;99302.00;;;7.95;100.00
38054;BME280;23859;50.672;7.164;2023-01-15T01:18:04;99315.56;;;7.93;100.00
38054;BME280;23859;50.672;7.164;2023-01-15T01:20:31;99303.16;;;8.10;100.00
38054;BME280;23859;50.672;7.164;2023-01-15T01:22:57;99309.34;;;8.01;100.00
38054;BME280;23859;50.672;7.164;2023-01-15T01:25:23;99307.78;;;7.91;100.00
38054;BME280;23859;50.672;7.164;2023-01-15T01:27:49;99308.91;;;7.89;100.00
38054;BME280;23859;50.672;7.164;2023-01-15T01:30:15;99311.84;;;7.86;100.00
38054;BME280;23859;50.672;7.164;2023-01-15T01:32:44;99319.47;;;7.71;100.00
38054;BME280;23859;50.672;7.164;2023-01-15T01:35:11;99322.88;;;7.64;100.00
38054;BME280;23859;50.672;7.164;2023-01-15T01:37:37;99320.59;;;7.69;100.00
38054;BME280;23859;50.672;7.164;2023-01-15T01:40:04;99327.94;;;7.57;100.00
38054;BME280;23859;50.672;7.164;2023-01-15T01:42:30;99328.56;;;7.42;100.00
38054;BME280;23859;50.672;7.164;2023-01-15T01:47:39;99318.31;;;7.39;100.00
38054;BME280;23859;50.672;7.164;2023-01-15T01:50:11;99312.44;;;7.45;100.00
38054;BME280;23859;50.672;7.164;2023-01-15T01:52:51;99315.22;;;7.43;100.00
38054;BME280;23859;50.672;7.164;2023-01-15T01:55:22;99327.38;;;7.54;100.00
38054;BME280;23859;50.672;7.164;2023-01-15T01:57:50;99321.19;;;7.63;100.00
38054;BME280;23859;50.672;7.164;2023-01-15T02:00:18;99315.31;;;7.69;100.00
38054;BME280;23859;50.672;7.164;2023-01-15T02:02:46;99313.66;;;7.68;100.00
38054;BME280;23859;50.672;7.164;2023-01-15T02:05:26;99316.00;;;7.71;100.00
38054;BME280;23859;50.672;7.164;2023-01-15T02:07:54;99318.13;;;7.67;100.00
38054;BME280;23859;50.672;7.164;2023-01-15T02:10:20;99329.34;;;7.52;100.00
38054;BME280;23859;50.672;7.164;2023-01-15T02:13:02;99323.75;;;7.37;100.00
38054;BME280;23859;50.672;7.164;2023-01-15T02:15:39;99318.53;;;7.45;100.00
38054;BME280;23859;50.672;7.164;2023-01-15T02:18:30;99311.03;;;7.41;97.52
38054;BME280;23859;50.672;7.164;2023-01-15T02:21:06;99310.00;;;7.34;100.00
38054;BME280;23859;50.672;7.164;2023-01-15T02:23:49;99299.28;;;7.35;99.80
38054;BME280;23859;50.672;7.164;2023-01-15T02:29:12;99296.59;;;7.18;100.00
38054;BME280;23859;50.672;7.164;2023-01-15T02:31:41;99292.88;;;7.11;100.00
38054;BME280;23859;50.672;7.164;2023-01-15T02:34:19;99297.97;;;7.22;100.00
38054;BME280;23859;50.672;7.164;2023-01-15T02:36:52;99278.59;;;7.04;100.00
38054;BME280;23859;50.672;7.164;2023-01-15T02:39:21;99306.19;;;7.19;100.00
38054;BME280;23859;50.672;7.164;2023-01-15T02:41:50;99300.19;;;7.27;99.45
38054;BME280;23859;50.672;7.164;2023-01-15T02:44:21;99281.72;;;7.17;99.91
38054;BME280;23859;50.672;7.164;2023-01-15T02:46:48;99279.78;;;7.19;100.00
38054;BME280;23859;50.672;7.164;2023-01-15T02:49:18;99274.41;;;7.11;100.00
38054;BME280;23859;50.672;7.164;2023-01-15T02:52:04;99268.00;;;7.31;99.13
38054;BME280;23859;50.672;7.164;2023-01-15T02:54:36;99279.31;;;7.24;98.63
38054;BME280;23859;50.672;7.164;2023-01-15T02:57:05;99281.38;;;7.29;100.00
38054;BME280;23859;50.672;7.164;2023-01-15T02:59:37;99274.41;;;7.28;100.00
38054;BME280;23859;50.672;7.164;2023-01-15T03:02:09;99172.63;;;6.72;99.99
38054;BME280;23859;50.672;7.164;2023-01-15T03:04:43;99273.16;;;7.32;99.53
38054;BME280;23859;50.672;7.164;2023-01-15T03:07:20;99267.19;;;7.30;100.00
38054;BME280;23859;50.672;7.164;2023-01-15T03:09:48;99275.16;;;7.21;100.00
38054;BME280;23859;50.672;7.164;2023-01-15T03:17:47;99281.41;;;7.20;100.00
38054;BME280;23859;50.672;7.164;2023-01-15T03:20:26;99294.44;;;7.31;99.80
38054;BME280;23859;50.672;7.164;2023-01-15T03:22:57;99293.06;;;7.27;100.00
38054;BME280;23859;50.672;7.164;2023-01-15T03:25:28;99292.31;;;7.34;94.76
38054;BME280;23859;50.672;7.164;2023-01-15T03:28:00;99306.38;;;7.35;100.00
38054;BME280;23859;50.672;7.164;2023-01-15T03:30:27;99300.72;;;7.30;98.85
38054;BME280;23859;50.672;7.164;2023-01-15T03:32:54;99304.06;;;7.23;99.29
38054;BME280;23859;50.672;7.164;2023-01-15T03:38:17;99300.63;;;7.39;97.40
38054;BME280;23859;50.672;7.164;2023-01-15T03:43:40;99314.16;;;7.36;96.60
38054;BME280;23859;50.672;7.164;2023-01-15T03:46:22;99308.09;;;7.27;96.70
38054;BME280;23859;50.672;7.164;2023-01-15T03:49:01;99316.34;;;7.41;89.33
38054;BME280;23859;50.672;7.164;2023-01-15T03:54:10;99312.06;;;7.57;90.21
38054;BME280;23859;50.672;7.164;2023-01-15T03:56:48;99307.16;;;7.62;88.52
38054;BME280;23859;50.672;7.164;2023-01-15T03:59:36;99303.97;;;7.59;88.63
38054;BME280;23859;50.672;7.164;2023-01-15T04:02:07;99294.69;;;7.55;89.01
38054;BME280;23859;50.672;7.164;2023-01-15T04:04:35;99280.34;;;7.40;94.11
38054;BME280;23859;50.672;7.164;2023-01-15T04:07:03;99292.63;;;7.31;93.83
38054;BME280;23859;50.672;7.164;2023-01-15T04:09:30;99285.31;;;7.43;92.32
38054;BME280;23859;50.672;7.164;2023-01-15T04:11:59;99298.69;;;7.59;92.08
38054;BME280;23859;50.672;7.164;2023-01-15T04:14:27;99282.78;;;7.51;92.16
38054;BME280;23859;50.672;7.164;2023-01-15T04:16:55;99276.09;;;7.47;93.77
38054;BME280;23859;50.672;7.164;2023-01-15T04:19:21;99272.41;;;7.40;93.99
38054;BME280;23859;50.672;7.164;2023-01-15T04:21:47;99260.94;;;7.31;94.02
38054;BME280;23859;50.672;7.164;2023-01-15T04:24:13;99268.25;;;7.37;95.01
38054;BME280;23859;50.672;7.164;2023-01-15T04:26:39;99248.63;;;7.40;93.96
38054;BME280;23859;50.672;7.164;2023-01-15T04:29:05;99255.19;;;7.36;94.28
38054;BME280;23859;50.672;7.164;2023-01-15T04:31:31;99262.13;;;7.37;95.76
38054;BME280;23859;50.672;7.164;2023-01-15T04:33:58;99261.09;;;7.30;97.26
38054;BME280;23859;50.672;7.164;2023-01-15T04:36:25;99262.88;;;7.47;95.11
38054;BME280;23859;50.672;7.164;2023-01-15T04:38:51;99276.31;;;7.36;98.22
38054;BME280;23859;50.672;7.164;2023-01-15T04:41:17;99271.00;;;7.19;96.15
38054;BME280;23859;50.672;7.164;2023-01-15T04:44:01;99281.03;;;7.15;96.77
38054;BME280;23859;50.672;7.164;2023-01-15T04:46:44;99273.88;;;7.25;94.80
38054;BME280;23859;50.672;7.164;2023-01-15T04:49:16;99295.72;;;7.27;93.29
38054;BME280;23859;50.672;7.164;2023-01-15T04:51:43;99294.44;;;7.31;95.47
38054;BME280;23859;50.672;7.164;2023-01-15T04:54:11;99277.09;;;7.46;91.46
38054;BME280;23859;50.672;7.164;2023-01-15T04:56:40;99278.56;;;7.31;92.82
38054;BME280;23859;50.672;7.164;2023-01-15T04:59:07;99273.28;;;7.31;91.00
38054;BME280;23859;50.672;7.164;2023-01-15T05:01:33;99287.25;;;7.41;91.63
38054;BME280;23859;50.672;7.164;2023-01-15T05:04:00;99283.97;;;7.39;90.65
38054;BME280;23859;50.672;7.164;2023-01-15T05:06:26;99275.81;;;7.32;90.49
38054;BME280;23859;50.672;7.164;2023-01-15T05:08:52;99269.69;;;7.32;88.57
38054;BME280;23859;50.672;7.164;2023-01-15T05:11:18;99289.31;;;7.47;87.27
38054;BME280;23859;50.672;7.164;2023-01-15T05:13:44;99282.84;;;7.41;87.39
38054;BME280;23859;50.672;7.164;2023-01-15T05:16:24;99283.53;;;7.43;86.86
38054;BME280;23859;50.672;7.164;2023-01-15T05:18:52;99283.22;;;7.46;86.51
38054;BME280;23859;50.672;7.164;2023-01-15T05:21:26;99289.03;;;7.50;85.36
38054;BME280;23859;50.672;7.164;2023-01-15T05:23:53;99290.97;;;7.48;86.90
38054;BME280;23859;50.672;7.164;2023-01-15T05:26:21;99285.31;;;7.60;85.64
38054;BME280;23859;50.672;7.164;2023-01-15T05:28:47;99291.91;;;7.56;85.14
38054;BME280;23859;50.672;7.164;2023-01-15T05:31:18;99293.78;;;7.46;85.99
38054;BME280;23859;50.672;7.164;2023-01-15T05:33:45;99299.59;;;7.50;85.95
38054;BME280;23859;50.672;7.164;2023-01-15T05:36:14;99317.41;;;7.48;83.08
38054;BME280;23859;50.672;7.164;2023-01-15T05:38:41;99308.81;;;7.46;84.96
38054;BME280;23859;50.672;7.164;2023-01-15T05:41:10;99310.66;;;7.36;86.08
38054;BME280;23859;50.672;7.164;2023-01-15T05:43:56;99305.97;;;7.57;83.92
38054;BME280;23859;50.672;7.164;2023-01-15T05:46:24;99299.22;;;7.45;84.16
38054;BME280;23859;50.672;7.164;2023-01-15T05:48:50;99310.22;;;7.40;85.55
38054;BME280;23859;50.672;7.164;2023-01-15T05:51:16;99319.13;;;7.39;82.81
38054;BME280;23859;50.672;7.164;2023-01-15T05:53:42;99309.94;;;7.43;82.66
38054;BME280;23859;50.672;7.164;2023-01-15T05:56:09;99307.50;;;7.32;85.42
38054;BME280;23859;50.672;7.164;2023-01-15T05:58:35;99319.50;;;7.27;85.14
38054;BME280;23859;50.672;7.164;2023-01-15T06:01:09;99321.44;;;7.25;87.03
38054;BME280;23859;50.672;7.164;2023-01-15T06:03:36;99317.94;;;7.34;86.24
38054;BME280;23859;50.672;7.164;2023-01-15T06:06:02;99324.16;;;7.16;87.88
38054;BME280;23859;50.672;7.164;2023-01-15T06:08:29;99331.94;;;7.08;89.67
38054;BME280;23859;50.672;7.164;2023-01-15T06:10:55;99339.53;;;7.20;89.22
38054;BME280;23859;50.672;7.164;2023-01-15T06:13:21;99354.91;;;7.07;91.01
38054;BME280;23859;50.672;7.164;2023-01-15T06:15:47;99353.63;;;7.11;89.78
38054;BME280;23859;50.672;7.164;2023-01-15T06:18:13;99349.59;;;7.17;89.79
38054;BME280;23859;50.672;7.164;2023-01-15T06:20:41;99354.75;;;7.09;89.98
38054;BME280;23859;50.672;7.164;2023-01-15T06:23:08;99346.00;;;7.08;91.56
38054;BME280;23859;50.672;7.164;2023-01-15T06:25:37;99353.66;;;7.02;90.76
38054;BME280;23859;50.672;7.164;2023-01-15T06:28:04;99368.28;;;6.96;94.55
38054;BME280;23859;50.672;7.164;2023-01-15T06:30:31;99382.75;;;6.92;96.28
38054;BME280;23859;50.672;7.164;2023-01-15T06:32:57;99391.44;;;6.66;98.11
38054;BME280;23859;50.672;7.164;2023-01-15T06:35:23;99395.59;;;6.59;100.00
38054;BME280;23859;50.672;7.164;2023-01-15T06:37:49;99392.03;;;6.32;100.00
38054;BME280;23859;50.672;7.164;2023-01-15T06:40:16;99384.81;;;6.15;100.00
38054;BME280;23859;50.672;7.164;2023-01-15T06:42:42;99379.81;;;6.02;100.00
38054;BME280;23859;50.672;7.164;2023-01-15T06:45:36;99379.81;;;5.93;100.00
38054;BME280;23859;50.672;7.164;2023-01-15T06:48:22;99367.72;;;5.81;100.00
38054;BME280;23859;50.672;7.164;2023-01-15T06:50:48;99359.81;;;5.72;100.00
38054;BME280;23859;50.672;7.164;2023-01-15T06:53:14;99371.28;;;5.61;100.00
38054;BME280;23859;50.672;7.164;2023-01-15T06:55:40;99350.22;;;5.61;100.00
38054;BME280;23859;50.672;7.164;2023-01-15T06:58:06;99349.50;;;5.59;100.00
38054;BME280;23859;50.672;7.164;2023-01-15T07:00:32;99357.69;;;5.56;100.00
38054;BME280;23859;50.672;7.164;2023-01-15T07:03:04;99363.38;;;5.61;100.00
38054;BME280;23859;50.672;7.164;2023-01-15T07:05:31;99371.56;;;5.58;100.00
38054;BME280;23859;50.672;7.164;2023-01-15T07:07:57;99368.78;;;5.60;100.00
38054;BME280;23859;50.672;7.164;2023-01-15T07:10:23;99374.97;;;5.79;100.00
38054;BME280;23859;50.672;7.164;2023-01-15T07:12:49;99386.75;;;5.85;100.00
38054;BME280;23859;50.672;7.164;2023-01-15T07:15:16;99395.06;;;5.90;100.00
38054;BME280;23859;50.672;7.164;2023-01-15T07:17:42;99415.03;;;5.92;100.00
38054;BME280;23859;50.672;7.164;2023-01-15T07:20:08;99398.56;;;6.09;100.00
38054;BME280;23859;50.672;7.164;2023-01-15T07:22:35;99389.53;;;6.02;100.00
38054;BME280;23859;50.672;7.164;2023-01-15T07:25:01;99386.34;;;5.98;100.00
38054;BME280;23859;50.672;7.164;2023-01-15T07:27:27;99378.72;;;6.14;100.00
38054;BME280;23859;50.672;7.164;2023-01-15T07:29:53;99372.31;;;6.26;99.95
38054;BME280;23859;50.672;7.164;2023-01-15T07:32:19;99375.25;;;6.33;97.39
38054;BME280;23859;50.672;7.164;2023-01-15T07:34:45;99387.88;;;6.39;96.62
38054;BME280;23859;50.672;7.164;2023-01-15T07:37:11;99403.56;;;6.40;96.79
38054;BME280;23859;50.672;7.164;2023-01-15T07:39:37;99404.53;;;6.49;96.10
38054;BME280;23859;50.672;7.164;2023-01-15T07:42:03;99391.06;;;6.33;97.78
38054;BME280;23859;50.672;7.164;2023-01-15T07:44:48;99396.31;;;6.42;95.56
38054;BME280;23859;50.672;7.164;2023-01-15T07:47:32;99402.03;;;6.47;95.54
38054;BME280;23859;50.672;7.164;2023-01-15T07:50:22;99399.25;;;6.30;94.91
38054;BME280;23859;50.672;7.164;2023-01-15T07:52:48;99398.69;;;6.36;95.17
38054;BME280;23859;50.672;7.164;2023-01-15T07:55:14;99399.53;;;6.36;95.73
38054;BME280;23859;50.672;7.164;2023-01-15T07:57:42;99408.13;;;6.29;95.66
38054;BME280;23859;50.672;7.164;2023-01-15T08:00:14;99423.28;;;6.36;95.08
38054;BME280;23859;50.672;7.164;2023-01-15T08:02:41;99401.72;;;6.31;92.44
38054;BME280;23859;50.672;7.164;2023-01-15T08:05:08;99416.75;;;6.40;92.31
38054;BME280;23859;50.672;7.164;2023-01-15T08:07:40;99413.41;;;6.38;92.98
38054;BME280;23859;50.672;7.164;2023-01-15T08:10:09;99411.47;;;6.31;94.52
38054;BME280;23859;50.672;7.164;2023-01-15T08:12:35;99406.72;;;6.15;94.64
38054;BME280;23859;50.672;7.164;2023-01-15T08:15:20;99407.59;;;6.16;93.63
38054;BME280;23859;50.672;7.164;2023-01-15T08:17:47;99418.00;;;6.17;94.73
38054;BME280;23859;50.672;7.164;2023-01-15T08:20:19;99432.28;;;6.43;91.73
38054;BME280;23859;50.672;7.164;2023-01-15T08:22:46;99444.78;;;6.41;93.13
38054;BME280;23859;50.672;7.164;2023-01-15T08:25:15;99439.94;;;6.46;92.63
38054;BME280;23859;50.672;7.164;2023-01-15T08:27:42;99444.25;;;6.47;91.35
38054;BME280;23859;50.672;7.164;2023-01-15T08:30:16;99444.50;;;6.54;91.92
38054;BME280;23859;50.672;7.164;2023-01-15T08:32:43;99452.00;;;6.39;94.57
38054;BME280;23859;50.672;7.164;2023-01-15T08:35:09;99463.66;;;6.56;91.20
38054;BME280;23859;50.672;7.164;2023-01-15T08:37:35;99454.91;;;6.55;90.35
38054;BME280;23859;50.672;7.164;2023-01-15T08:40:02;99462.84;;;6.36;92.79
38054;BME280;23859;50.672;7.164;2023-01-15T08:42:28;99463.25;;;6.51;92.31
38054;BME280;23859;50.672;7.164;2023-01-15T08:44:54;99467.56;;;6.61;92.78
38054;BME280;23859;50.672;7.164;2023-01-15T08:47:20;99456.69;;;6.64;92.66
38054;BME280;23859;50.672;7.164;2023-01-15T08:49:46;99462.94;;;6.72;92.74
38054;BME280;23859;50.672;7.164;2023-01-15T08:52:15;99457.81;;;6.61;92.64
38054;BME280;23859;50.672;7.164;2023-01-15T08:54:41;99452.81;;;6.77;91.54
38054;BME280;23859;50.672;7.164;2023-01-15T08:57:08;99465.19;;;6.67;91.50
38054;BME280;23859;50.672;7.164;2023-01-15T08:59:36;99461.56;;;6.68;92.59
38054;BME280;23859;50.672;7.164;2023-01-15T09:02:02;99470.59;;;6.66;91.30
38054;BME280;23859;50.672;7.164;2023-01-15T09:04:28;99464.34;;;6.58;92.70
38054;BME280;23859;50.672;7.164;2023-01-15T09:06:54;99471.84;;;6.81;91.56
38054;BME280;23859;50.672;7.164;2023-01-15T09:09:21;99473.38;;;6.64;91.34
38054;BME280;23859;50.672;7.164;2023-01-15T09:11:47;99479.34;;;6.85;89.77
38054;BME280;23859;50.672;7.164;2023-01-15T09:14:14;99475.31;;;6.81;90.04
38054;BME280;23859;50.672;7.164;2023-01-15T09:16:41;99458.47;;;6.92;91.79
38054;BME280;23859;50.672;7.164;2023-01-15T09:19:08;99467.09;;;6.94;89.56
38054;BME280;23859;50.672;7.164;2023-01-15T09:21:34;99467.78;;;6.96;89.63
38054;BME280;23859;50.672;7.164;2023-01-15T09:24:01;99466.94;;;6.95;90.05
38054;BME280;23859;50.672;7.164;2023-01-15T09:26:33;99468.63;;;6.96;86.79
38054;BME280;23859;50.672;7.164;2023-01-15T09:29:00;99469.88;;;6.92;88.27
38054;BME280;23859;50.672;7.164;2023-01-15T09:31:27;99469.00;;;7.11;86.98
38054;BME280;23859;50.672;7.164;2023-01-15T09:33:53;99474.56;;;7.08;86.92
38054;BME280;23859;50.672;7.164;2023-01-15T09:36:27;99481.38;;;7.10;86.72
38054;BME280;23859;50.672;7.164;2023-01-15T09:38:56;99482.06;;;7.22;86.12
38054;BME280;23859;50.672;7.164;2023-01-15T09:41:24;99473.97;;;7.23;85.78
38054;BME280;23859;50.672;7.164;2023-01-15T09:49:46;99455.13;;;7.45;83.89
38054;BME280;23859;50.672;7.164;2023-01-15T09:55:19;99444.41;;;7.10;87.03
38054;BME280;23859;50.672;7.164;2023-01-15T09:57:50;99466.16;;;7.31;84.75
38054;BME280;23859;50.672;7.164;2023-01-15T10:00:23;99460.31;;;7.64;83.06
38054;BME280;23859;50.672;7.164;2023-01-15T10:03:16;99464.38;;;8.99;77.62
38054;BME280;23859;50.672;7.164;2023-01-15T10:06:26;99454.91;;;9.88;72.35
38054;BME280;23859;50.672;7.164;2023-01-15T10:09:01;99455.84;;;9.38;72.59
38054;BME280;23859;50.672;7.164;2023-01-15T10:11:43;99457.66;;;9.37;73.57
38054;BME280;23859;50.672;7.164;2023-01-15T10:14:36;99464.69;;;8.96;74.62
38054;BME280;23859;50.672;7.164;2023-01-15T10:17:14;99468.81;;;8.73;73.61
38054;BME280;23859;50.672;7.164;2023-01-15T10:19:42;99468.13;;;8.54;74.70
38054;BME280;23859;50.672;7.164;2023-01-15T10:25:03;99487.66;;;7.82;78.00
38054;BME280;23859;50.672;7.164;2023-01-15T10:27:33;99479.69;;;7.91;77.43
38054;BME280;23859;50.672;7.164;2023-01-15T10:30:15;99496.38;;;7.92;77.59
38054;BME280;23859;50.672;7.164;2023-01-15T10:32:44;99508.84;;;7.99;78.90
38054;BME280;23859;50.672;7.164;2023-01-15T10:35:29;99513.56;;;8.05;78.57
38054;BME280;23859;50.672;7.164;2023-01-15T10:41:02;99535.00;;;8.56;75.54
38054;BME280;23859;50.672;7.164;2023-01-15T10:43:39;99529.91;;;8.97;74.56
38054;BME280;23859;50.672;7.164;2023-01-15T10:46:15;99522.84;;;10.06;68.99
38054;BME280;23859;50.672;7.164;2023-01-15T10:48:50;99520.00;;;10.49;67.03
38054;BME280;23859;50.672;7.164;2023-01-15T10:56:24;99513.59;;;10.75;65.41
38054;BME280;23859;50.672;7.164;2023-01-15T11:01:53;99485.38;;;10.98;61.19
38054;BME280;23859;50.672;7.164;2023-01-15T11:04:20;99488.50;;;10.94;61.41
38054;BME280;23859;50.672;7.164;2023-01-15T11:06:46;99504.97;;;10.81;62.93
38054;BME280;23859;50.672;7.164;2023-01-15T11:09:24;99484.50;;;10.66;61.39
38054;BME280;23859;50.672;7.164;2023-01-15T11:12:23;99489.66;;;10.75;61.53
38054;BME280;23859;50.672;7.164;2023-01-15T11:14:50;99490.66;;;11.30;61.05
38054;BME280;23859;50.672;7.164;2023-01-15T11:17:40;99484.34;;;11.31;62.32
38054;BME280;23859;50.672;7.164;2023-01-15T11:20:34;99488.97;;;11.21;63.01
38054;BME280;23859;50.672;7.164;2023-01-15T11:23:09;99504.41;;;10.54;62.70
38054;BME280;23859;50.672;7.164;2023-01-15T11:25:37;99487.91;;;10.27;64.15
38054;BME280;23859;50.672;7.164;2023-01-15T11:28:05;99482.94;;;10.32;63.78
38054;BME280;23859;50.672;7.164;2023-01-15T11:30:36;99485.34;;;11.22;59.53
38054;BME280;23859;50.672;7.164;2023-01-15T11:33:05;99480.13;;;11.68;58.88
38054;BME280;23859;50.672;7.164;2023-01-15T11:35:32;99484.38;;;11.15;58.70
38054;BME280;23859;50.672;7.164;2023-01-15T11:38:13;99482.69;;;10.74;62.00
38054;BME280;23859;50.672;7.164;2023-01-15T11:40:49;99496.03;;;11.84;57.87
38054;BME280;23859;50.672;7.164;2023-01-15T11:43:29;99484.44;;;12.46;54.44
38054;BME280;23859;50.672;7.164;2023-01-15T11:46:28;99472.41;;;12.72;53.55
38054;BME280;23859;50.672;7.164;2023-01-15T11:49:18;99471.50;;;11.96;56.42
38054;BME280;23859;50.672;7.164;2023-01-15T11:52:08;99486.03;;;11.08;58.57
38054;BME280;23859;50.672;7.164;2023-01-15T11:54:41;99485.81;;;10.54;59.39
38054;BME280;23859;50.672;7.164;2023-01-15T11:57:09;99475.25;;;10.86;58.88
38054;BME280;23859;50.672;7.164;2023-01-15T11:59:36;99473.75;;;11.77;56.58
38054;BME280;23859;50.672;7.164;2023-01-15T12:04:52;99480.69;;;11.16;56.82
38054;BME280;23859;50.672;7.164;2023-01-15T12:07:21;99464.78;;;11.78;55.79
38054;BME280;23859;50.672;7.164;2023-01-15T12:12:51;99468.66;;;11.44;57.55
38054;BME280;23859;50.672;7.164;2023-01-15T12:18:21;99462.41;;;11.13;57.21
38054;BME280;23859;50.672;7.164;2023-01-15T12:21:24;99458.19;;;11.58;57.36
38054;BME280;23859;50.672;7.164;2023-01-15T12:24:08;99447.03;;;11.63;56.55
38054;BME280;23859;50.672;7.164;2023-01-15T12:32:13;99425.56;;;10.55;59.67
38054;BME280;23859;50.672;7.164;2023-01-15T12:37:51;99413.22;;;11.25;57.51
38054;BME280;23859;50.672;7.164;2023-01-15T12:40:25;99433.19;;;10.50;61.22
38054;BME280;23859;50.672;7.164;2023-01-15T12:42:54;99440.81;;;10.53;61.63
38054;BME280;23859;50.672;7.164;2023-01-15T12:45:47;99446.66;;;10.64;61.37
38054;BME280;23859;50.672;7.164;2023-01-15T12:48:18;99444.47;;;10.67;61.12
38054;BME280;23859;50.672;7.164;2023-01-15T12:50:49;99433.50;;;11.18;58.88
38054;BME280;23859;50.672;7.164;2023-01-15T12:59:28;99442.50;;;10.54;60.80
38054;BME280;23859;50.672;7.164;2023-01-15T13:02:32;99434.03;;;10.82;60.45
38054;BME280;23859;50.672;7.164;2023-01-15T13:05:23;99434.97;;;11.28;58.49
38054;BME280;23859;50.672;7.164;2023-01-15T13:08:04;99431.19;;;11.07;58.78
38054;BME280;23859;50.672;7.164;2023-01-15T13:10:32;99443.72;;;11.53;56.25
38054;BME280;23859;50.672;7.164;2023-01-15T13:13:22;99440.44;;;11.51;55.27
38054;BME280;23859;50.672;7.164;2023-01-15T13:21:13;99464.53;;;10.30;61.80
38054;BME280;23859;50.672;7.164;2023-01-15T13:26:36;99483.53;;;10.02;60.49
38054;BME280;23859;50.672;7.164;2023-01-15T13:29:15;99474.16;;;9.90;61.29
38054;BME280;23859;50.672;7.164;2023-01-15T13:37:28;99465.00;;;9.85;63.24
38054;BME280;23859;50.672;7.164;2023-01-15T13:40:20;99476.78;;;9.82;62.91
38054;BME280;23859;50.672;7.164;2023-01-15T13:42:49;99483.44;;;9.86;63.28
38054;BME280;23859;50.672;7.164;2023-01-15T13:47:57;99483.16;;;9.64;61.63
38054;BME280;23859;50.672;7.164;2023-01-15T13:50:35;99499.78;;;9.74;63.16
38054;BME280;23859;50.672;7.164;2023-01-15T13:55:41;99497.22;;;9.56;63.35
38054;BME280;23859;50.672;7.164;2023-01-15T13:58:27;99492.78;;;9.65;62.50
38054;BME280;23859;50.672;7.164;2023-01-15T14:03:35;99479.28;;;9.50;61.96
38054;BME280;23859;50.672;7.164;2023-01-15T14:06:05;99488.00;;;9.43;63.40
38054;BME280;23859;50.672;7.164;2023-01-15T14:08:42;99493.28;;;9.35;62.66
38054;BME280;23859;50.672;7.164;2023-01-15T14:14:30;99494.19;;;9.26;62.98
38054;BME280;23859;50.672;7.164;2023-01-15T14:20:02;99504.50;;;8.86;65.31
38054;BME280;23859;50.672;7.164;2023-01-15T14:34:13;99531.31;;;9.26;63.72
38054;BME280;23859;50.672;7.164;2023-01-15T14:36:51;99525.13;;;9.00;64.94
38054;BME280;23859;50.672;7.164;2023-01-15T14:39:31;99534.75;;;9.01;65.24
38054;BME280;23859;50.672;7.164;2023-01-15T14:42:37;99533.09;;;9.00;66.01
38054;BME280;23859;50.672;7.164;2023-01-15T14:48:03;99547.56;;;9.06;65.82
38054;BME280;23859;50.672;7.164;2023-01-15T14:50:38;99548.41;;;8.89;66.93
38054;BME280;23859;50.672;7.164;2023-01-15T14:56:03;99550.81;;;9.00;67.13
38054;BME280;23859;50.672;7.164;2023-01-15T14:58:50;99553.53;;;8.90;66.09
38054;BME280;23859;50.672;7.164;2023-01-15T15:01:31;99554.44;;;8.99;65.84
38054;BME280;23859;50.672;7.164;2023-01-15T15:06:52;99543.38;;;8.86;66.20
38054;BME280;23859;50.672;7.164;2023-01-15T15:09:41;99535.66;;;9.10;66.17
38054;BME280;23859;50.672;7.164;2023-01-15T15:21:02;99560.06;;;8.96;65.82
38054;BME280;23859;50.672;7.164;2023-01-15T15:23:17;99554.50;;;8.89;66.10
38054;BME280;23859;50.672;7.164;2023-01-15T15:25:53;99553.31;;;8.84;67.25
38054;BME280;23859;50.672;7.164;2023-01-15T15:28:19;99562.72;;;8.96;67.07
38054;BME280;23859;50.672;7.164;2023-01-15T15:30:46;99562.63;;;8.88;68.20
38054;BME280;23859;50.672;7.164;2023-01-15T15:33:17;99556.78;;;8.84;68.68